Time;durP1;ratioP1;P1;durP2;ratioP2;P2;SDS_P1;SDS_P2;PMS_P1;PMS_P2;Temp;Humidity;BMP_temperature;BMP_pressure;BME280_temperature;BME280_humidity;BME280_pressure;Samples;Min_cycle;Max_cycle;Signal;HPM_P1;HPM_P2
2022/04/09 00:00:26;;;;;;;15.43;1.77;;;;;;;0.92;100.00;100297.22;5012047;28;20096;-89
2022/04/09 00:02:52;;;;;;;21.58;2.33;;;;;;;0.88;100.00;100307.38;5011867;28;20022;-88
2022/04/09 00:05:17;;;;;;;19.33;1.83;;;;;;;0.87;100.00;100316.31;5011990;28;20034;-88
2022/04/09 00:07:43;;;;;;;15.53;1.73;;;;;;;0.87;100.00;100321.59;5012224;28;20041;-88
2022/04/09 00:10:10;;;;;;;18.93;2.00;;;;;;;0.85;100.00;100319.16;5015639;28;20469;-88
2022/04/09 00:12:35;;;;;;;22.70;1.92;;;;;;;0.84;100.00;100327.28;5029916;28;20352;-88
2022/04/09 00:15:01;;;;;;;20.45;2.20;;;;;;;0.85;100.00;100339.44;5019698;28;20033;-88
2022/04/09 00:17:26;;;;;;;15.95;1.85;;;;;;;0.81;100.00;100328.50;5012138;28;20080;-88
2022/04/09 00:19:52;;;;;;;22.43;2.33;;;;;;;0.82;100.00;100339.84;5010989;28;20099;-89
2022/04/09 00:22:18;;;;;;;13.23;1.90;;;;;;;0.81;100.00;100351.41;5031302;28;20029;-89
2022/04/09 00:24:43;;;;;;;17.35;2.10;;;;;;;0.79;100.00;100358.72;5031689;28;20029;-88
2022/04/09 00:27:08;;;;;;;14.33;1.90;;;;;;;0.73;100.00;100361.16;5017335;28;20059;-88
2022/04/09 00:29:34;;;;;;;10.90;1.60;;;;;;;0.73;100.00;100368.28;5012349;28;20025;-89
2022/04/09 00:31:59;;;;;;;21.17;2.47;;;;;;;0.72;100.00;100358.72;5012438;28;20064;-88
2022/04/09 00:34:24;;;;;;;15.73;2.10;;;;;;;0.70;100.00;100372.13;5012493;28;20049;-88
2022/04/09 00:36:50;;;;;;;19.43;2.10;;;;;;;0.66;100.00;100368.28;5025944;28;20049;-88
2022/04/09 00:39:15;;;;;;;15.25;1.98;;;;;;;0.65;100.00;100376.38;5019919;28;20052;-88
2022/04/09 00:41:46;;;;;;;17.00;2.30;;;;;;;0.58;100.00;100374.56;5028679;28;20392;-88
2022/04/09 00:44:17;;;;;;;13.98;2.13;;;;;;;0.56;100.00;100394.22;5026478;28;20037;-88
2022/04/09 00:46:42;;;;;;;14.73;2.20;;;;;;;0.52;100.00;100387.75;5030486;28;20048;-88
2022/04/09 00:49:07;;;;;;;21.17;2.67;;;;;;;0.51;100.00;100399.31;5029471;28;20771;-88
2022/04/09 00:51:36;;;;;;;14.37;2.10;;;;;;;0.47;100.00;100406.78;5030927;28;20436;-88
2022/04/09 00:54:05;;;;;;;14.38;2.10;;;;;;;0.42;100.00;100398.69;5015278;28;20068;-88
2022/04/09 00:56:31;;;;;;;16.58;1.95;;;;;;;0.34;100.00;100394.41;5010919;28;20037;-88
2022/04/09 00:59:00;;;;;;;16.25;2.58;;;;;;;0.33;100.00;100405.97;5009408;28;20495;-88
2022/04/09 01:01:27;;;;;;;11.20;1.90;;;;;;;0.35;100.00;100418.94;5010962;28;20034;-88
2022/04/09 01:03:54;;;;;;;21.67;2.47;;;;;;;0.32;100.00;100420.16;5009396;28;20772;-87
2022/04/09 01:06:20;;;;;;;20.65;2.50;;;;;;;0.28;100.00;100424.22;5010717;28;20033;-88
2022/04/09 01:08:46;;;;;;;21.90;2.33;;;;;;;0.24;100.00;100423.81;5009650;28;20117;-88
2022/04/09 01:11:13;;;;;;;19.63;2.33;;;;;;;0.20;100.00;100429.66;5022370;28;20033;-88
2022/04/09 01:13:39;;;;;;;17.90;2.67;;;;;;;0.23;100.00;100437.16;5029078;28;20207;-88
2022/04/09 01:16:05;;;;;;;22.40;2.65;;;;;;;0.19;100.00;100431.47;5012723;28;20030;-88
2022/04/09 01:18:31;;;;;;;18.05;2.90;;;;;;;0.23;100.00;100451.16;5009941;28;20109;-88
2022/04/09 01:20:58;;;;;;;19.20;2.50;;;;;;;0.22;100.00;100456.63;5030477;28;20423;-88
2022/04/09 01:23:24;;;;;;;24.20;2.15;;;;;;;0.17;100.00;100445.88;5029106;28;20104;-89
2022/04/09 01:25:49;;;;;;;19.23;2.07;;;;;;;0.21;100.00;100458.44;5021324;28;20108;-88
2022/04/09 01:28:15;;;;;;;13.57;1.80;;;;;;;0.18;100.00;100456.22;5025980;28;20052;-88
2022/04/09 01:30:40;;;;;;;19.80;1.80;;;;;;;0.18;100.00;100464.13;5022956;28;20060;-88
2022/04/09 01:33:05;;;;;;;15.93;1.80;;;;;;;0.15;100.00;100469.78;5010612;28;20072;-87
2022/04/09 01:35:31;;;;;;;22.60;2.60;;;;;;;0.11;100.00;100469.38;5018327;28;20041;-88
2022/04/09 01:37:56;;;;;;;26.07;2.40;;;;;;;0.07;100.00;100470.75;5026245;28;20029;-88
2022/04/09 01:40:21;;;;;;;17.83;1.87;;;;;;;0.07;100.00;100480.50;5019716;28;20677;-89
2022/04/09 01:42:47;;;;;;;12.32;2.03;;;;;;;0.02;100.00;100472.38;5023222;28;20052;-88
2022/04/09 01:45:12;;;;;;;18.20;2.00;;;;;;;0.02;100.00;100486.34;5012704;28;20022;-88
2022/04/09 01:47:42;;;;;;;21.30;2.10;;;;;;;-0.02;100.00;100490.41;5011636;28;20080;-88
2022/04/09 01:50:09;;;;;;;16.85;2.53;;;;;;;-0.02;100.00;100487.75;5022460;28;20029;-88
2022/04/09 01:52:35;;;;;;;14.52;2.10;;;;;;;0.03;100.00;100501.13;5010670;28;20388;-89
2022/04/09 01:55:00;;;;;;;24.20;2.50;;;;;;;0.00;100.00;100504.19;5010237;28;20105;-88
2022/04/09 01:57:26;;;;;;;24.13;2.10;;;;;;;0.02;100.00;100511.88;5009946;28;20030;-89
2022/04/09 01:59:51;;;;;;;16.57;2.40;;;;;;;0.03;100.00;100511.69;5009646;28;20156;-88
2022/04/09 02:02:16;;;;;;;16.17;1.73;;;;;;;0.04;100.00;100510.66;5010470;28;20358;-88
2022/04/09 02:04:41;;;;;;;27.23;2.30;;;;;;;0.04;100.00;100513.31;5010123;28;20079;-86
2022/04/09 02:07:07;;;;;;;22.07;2.20;;;;;;;0.05;100.00;100517.56;5029881;28;20127;-86
2022/04/09 02:09:32;;;;;;;18.73;2.17;;;;;;;0.05;100.00;100527.31;5029103;28;20159;-86
2022/04/09 02:11:59;;;;;;;19.65;2.00;;;;;;;0.03;100.00;100530.13;5023240;28;20014;-86
2022/04/09 02:14:24;;;;;;;14.45;1.73;;;;;;;0.03;100.00;100529.31;5016526;28;20044;-86
2022/04/09 02:16:50;;;;;;;16.17;1.93;;;;;;;0.03;100.00;100532.75;5013801;28;20488;-86
2022/04/09 02:19:15;;;;;;;19.87;1.80;;;;;;;0.03;100.00;100532.75;5013630;28;20108;-85
2022/04/09 02:21:40;;;;;;;16.47;1.57;;;;;;;0.03;100.00;100539.84;5012228;28;20477;-86
2022/04/09 02:24:08;;;;;;;15.63;2.40;;;;;;;0.03;100.00;100556.47;5013517;28;20057;-85
2022/04/09 02:26:33;;;;;;;20.25;2.17;;;;;;;0.03;100.00;100548.56;5029535;28;20037;-85
2022/04/09 02:28:59;;;;;;;18.50;1.60;;;;;;;0.02;100.00;100557.47;5032937;28;20037;-85
2022/04/09 02:31:24;;;;;;;16.67;2.00;;;;;;;-0.02;100.00;100558.88;5029386;28;20030;-85
2022/04/09 02:33:49;;;;;;;18.77;1.98;;;;;;;-0.04;100.00;100553.00;5033747;28;20044;-87
2022/04/09 02:36:16;;;;;;;15.27;2.07;;;;;;;0.00;100.00;100575.31;5033951;28;20029;-85
2022/04/09 02:38:42;;;;;;;12.60;1.92;;;;;;;-0.01;100.00;100563.16;5032344;28;20544;-85
2022/04/09 02:41:11;;;;;;;12.53;2.60;;;;;;;0.00;100.00;100570.06;5031987;28;20075;-85
2022/04/09 02:43:37;;;;;;;16.33;1.70;;;;;;;0.01;100.00;100574.28;5020228;28;20327;-85
2022/04/09 02:46:03;;;;;;;16.02;2.00;;;;;;;0.03;100.00;100587.28;5025090;28;20057;-85
2022/04/09 02:48:28;;;;;;;14.98;2.10;;;;;;;0.03;100.00;100584.66;5013262;28;20120;-85
2022/04/09 02:50:54;;;;;;;24.60;2.50;;;;;;;0.04;100.00;100587.06;5013255;28;20069;-85
2022/04/09 02:53:20;;;;;;;15.63;1.70;;;;;;;0.06;100.00;100585.06;5013043;28;20034;-85
2022/04/09 02:55:45;;;;;;;15.90;2.17;;;;;;;0.12;100.00;100591.38;5012980;28;20032;-88
2022/04/09 02:58:11;;;;;;;25.63;2.33;;;;;;;0.19;100.00;100596.69;5017925;28;20083;-87
2022/04/09 03:00:36;;;;;;;17.17;2.20;;;;;;;0.21;100.00;100602.56;5029731;28;20116;-87
2022/04/09 03:03:01;;;;;;;17.50;1.60;;;;;;;0.26;100.00;100608.09;5038791;28;20033;-87
2022/04/09 03:05:27;;;;;;;20.03;1.77;;;;;;;0.26;100.00;100608.09;5042956;28;20025;-88
2022/04/09 03:07:52;;;;;;;18.70;1.83;;;;;;;0.26;100.00;100606.28;5033736;28;20384;-86
2022/04/09 03:10:17;;;;;;;13.07;1.67;;;;;;;0.26;100.00;100614.19;5032921;28;20441;-86
2022/04/09 03:12:44;;;;;;;10.93;1.50;;;;;;;0.24;100.00;100618.84;5029645;28;20025;-87
2022/04/09 03:15:10;;;;;;;8.88;1.30;;;;;;;0.18;100.00;100618.81;5015622;28;20045;-86
2022/04/09 03:17:35;;;;;;;13.87;1.00;;;;;;;0.13;100.00;100638.63;5040193;28;20025;-85
2022/04/09 03:20:00;;;;;;;11.60;1.23;;;;;;;0.10;100.00;100641.66;5040433;28;20030;-87
2022/04/09 03:22:27;;;;;;;14.93;1.73;;;;;;;0.14;100.00;100640.25;5017794;28;20164;-86
2022/04/09 03:24:58;;;;;;;14.13;1.27;;;;;;;0.19;100.00;100636.22;5024122;28;20650;-86
2022/04/09 03:27:25;;;;;;;15.70;1.60;;;;;;;0.10;100.00;100643.44;5026519;28;20044;-86
2022/04/09 03:29:50;;;;;;;20.45;1.67;;;;;;;0.01;100.00;100653.31;5030220;28;20100;-86
2022/04/09 03:32:15;;;;;;;14.23;2.13;;;;;;;-0.04;100.00;100646.00;5033058;28;20036;-86
2022/04/09 03:34:40;;;;;;;13.10;2.40;;;;;;;-0.09;100.00;100652.84;5031279;28;20021;-86
2022/04/09 03:37:06;;;;;;;14.95;2.00;;;;;;;-0.12;100.00;100656.69;5028447;28;20461;-86
2022/04/09 03:39:32;;;;;;;12.73;1.50;;;;;;;-0.18;100.00;100660.88;5026164;28;20635;-86
2022/04/09 03:41:57;;;;;;;14.55;1.20;;;;;;;-0.24;100.00;100668.75;5028589;28;20091;-86
2022/04/09 03:44:22;;;;;;;10.60;1.40;;;;;;;-0.28;100.00;100657.78;5014352;28;20057;-86
2022/04/09 03:46:48;;;;;;;17.13;1.80;;;;;;;-0.28;100.00;100668.31;5024367;28;20026;-88
2022/04/09 03:49:13;;;;;;;16.57;1.70;;;;;;;-0.27;100.00;100677.03;5030642;28;20028;-88
2022/04/09 03:51:38;;;;;;;15.23;1.47;;;;;;;-0.22;100.00;100667.56;5031594;28;20034;-85
2022/04/09 03:54:04;;;;;;;13.80;1.43;;;;;;;-0.13;100.00;100675.31;5030601;28;20361;-86
2022/04/09 03:56:29;;;;;;;14.03;1.83;;;;;;;-0.14;100.00;100671.88;5022909;28;20096;-86
2022/04/09 03:58:55;;;;;;;18.70;1.30;;;;;;;-0.14;100.00;100671.03;5011148;28;20476;-87
2022/04/09 04:01:24;;;;;;;16.02;1.50;;;;;;;-0.16;100.00;100682.59;5011907;28;20040;-85
2022/04/09 04:03:50;;;;;;;19.93;1.53;;;;;;;-0.19;100.00;100682.16;5011488;28;20400;-87
2022/04/09 04:06:15;;;;;;;15.87;1.70;;;;;;;-0.16;100.00;100687.06;5012528;28;20371;-87
2022/04/09 04:08:41;;;;;;;16.50;2.65;;;;;;;-0.19;100.00;100688.25;5011178;28;20140;-87
2022/04/09 04:11:06;;;;;;;13.13;1.50;;;;;;;-0.19;100.00;100693.53;5011889;28;20033;-87
2022/04/09 04:13:33;;;;;;;17.70;1.70;;;;;;;-0.12;100.00;100695.38;5011638;28;20433;-87
2022/04/09 04:15:59;;;;;;;14.98;1.65;;;;;;;-0.15;100.00;100701.84;5011532;28;20022;-87
2022/04/09 04:18:24;;;;;;;15.23;1.63;;;;;;;-0.14;100.00;100698.22;5013724;28;20159;-86
2022/04/09 04:20:51;;;;;;;18.70;1.80;;;;;;;-0.16;100.00;100703.66;5011359;28;20112;-84
2022/04/09 04:23:16;;;;;;;14.45;1.83;;;;;;;-0.17;100.00;100712.56;5029037;28;20035;-88
2022/04/09 04:25:41;;;;;;;15.50;1.83;;;;;;;-0.17;100.00;100717.03;5027591;28;20030;-88
2022/04/09 04:28:06;;;;;;;12.33;1.57;;;;;;;-0.18;100.00;100721.47;5025269;28;20090;-88
2022/04/09 04:30:32;;;;;;;9.30;1.73;;;;;;;-0.24;100.00;100716.97;5030976;28;20400;-88
2022/04/09 04:32:57;;;;;;;14.53;1.67;;;;;;;-0.22;100.00;100730.78;5031390;28;20024;-87
2022/04/09 04:35:22;;;;;;;11.63;1.80;;;;;;;-0.22;100.00;100729.94;5019170;28;20066;-87
2022/04/09 04:37:48;;;;;;;13.82;1.60;;;;;;;-0.24;100.00;100732.78;5011034;28;20499;-87
2022/04/09 04:40:15;;;;;;;10.07;1.60;;;;;;;-0.23;100.00;100734.41;5015584;28;20415;-88
2022/04/09 04:42:40;;;;;;;18.67;2.03;;;;;;;-0.26;100.00;100736.59;5029356;28;20018;-89
2022/04/09 04:45:06;;;;;;;16.23;2.03;;;;;;;-0.24;100.00;100735.41;5031797;28;20112;-88
2022/04/09 04:47:32;;;;;;;14.00;1.70;;;;;;;-0.20;100.00;100741.09;5031297;28;20416;-90
2022/04/09 04:49:57;;;;;;;14.43;1.80;;;;;;;-0.16;100.00;100751.06;5012632;28;20080;-89
2022/04/09 04:52:22;;;;;;;10.93;1.57;;;;;;;-0.12;100.00;100750.69;5010404;28;20513;-89
2022/04/09 04:54:48;;;;;;;19.07;1.73;;;;;;;-0.12;100.00;100750.69;5011523;28;20096;-89
2022/04/09 04:57:13;;;;;;;13.77;1.43;;;;;;;-0.10;100.00;100760.06;5013176;28;20206;-88
2022/04/09 04:59:39;;;;;;;14.10;1.63;;;;;;;-0.09;100.00;100771.41;5013887;28;20034;-88
2022/04/09 05:02:04;;;;;;;17.37;1.93;;;;;;;-0.10;100.00;100760.06;5020044;28;20049;-89
2022/04/09 05:04:29;;;;;;;13.23;1.90;;;;;;;-0.08;100.00;100763.31;5039445;28;20025;-88
2022/04/09 05:06:55;;;;;;;16.42;2.13;;;;;;;-0.01;100.00;100764.19;5037664;28;20320;-88
2022/04/09 05:09:21;;;;;;;18.25;2.15;;;;;;;0.06;100.00;100773.97;5040037;28;20018;-89
2022/04/09 05:11:46;;;;;;;11.27;1.63;;;;;;;0.08;100.00;100771.97;5041225;28;20032;-90
2022/04/09 05:14:11;;;;;;;23.60;2.17;;;;;;;0.11;100.00;100787.38;5034519;28;20492;-90
2022/04/09 05:16:37;;;;;;;19.63;1.87;;;;;;;0.12;100.00;100784.56;5020032;28;20112;-89
2022/04/09 05:19:03;;;;;;;13.83;1.70;;;;;;;0.12;100.00;100789.84;5011818;28;20034;-89
2022/04/09 05:21:29;;;;;;;13.75;1.65;;;;;;;0.22;100.00;100793.97;5012537;28;20033;-89
2022/04/09 05:23:54;;;;;;;14.73;1.70;;;;;;;0.27;100.00;100802.13;5011285;28;20504;-89
2022/04/09 05:26:19;;;;;;;7.00;1.50;;;;;;;0.35;100.00;100809.09;5012079;28;20039;-87
2022/04/09 05:28:45;;;;;;;10.43;1.47;;;;;;;0.40;100.00;100810.13;5030244;28;20396;-88
2022/04/09 05:31:11;;;;;;;12.87;1.70;;;;;;;0.53;100.00;100811.28;5013496;28;20026;-87
2022/04/09 05:33:37;;;;;;;21.48;2.13;;;;;;;0.61;100.00;100824.28;5018517;28;20018;-89
2022/04/09 05:36:03;;;;;;;14.05;1.50;;;;;;;0.66;100.00;100821.91;5019797;28;20034;-89
2022/04/09 05:38:28;;;;;;;14.03;1.70;;;;;;;0.67;100.00;100834.09;5029184;28;20033;-88
2022/04/09 05:40:53;;;;;;;9.40;1.60;;;;;;;0.69;100.00;100833.88;5022758;28;20378;-88
2022/04/09 05:43:19;;;;;;;14.48;1.70;;;;;;;0.69;100.00;100836.53;5014913;28;20488;-90
2022/04/09 05:45:44;;;;;;;15.40;1.80;;;;;;;0.73;100.00;100840.41;5014516;28;20068;-90
2022/04/09 05:48:10;;;;;;;16.37;2.27;;;;;;;0.83;100.00;100846.16;5027450;28;20433;-90
2022/04/09 05:50:35;;;;;;;13.70;1.77;;;;;;;0.92;100.00;100844.19;5029095;28;20092;-89
2022/04/09 05:53:00;;;;;;;18.83;2.40;;;;;;;1.03;100.00;100851.59;5030787;28;20072;-88
2022/04/09 05:55:25;;;;;;;16.07;2.17;;;;;;;1.06;100.00;100855.66;5030692;28;20030;-87
2022/04/09 05:57:51;;;;;;;13.03;2.63;;;;;;;1.13;100.00;100864.44;5017744;28;20057;-85
2022/04/09 06:00:16;;;;;;;15.02;2.35;;;;;;;1.18;100.00;100866.47;5027873;28;20026;-85
2022/04/09 06:02:42;;;;;;;15.83;2.17;;;;;;;1.24;100.00;100876.28;5022332;28;20401;-89
2022/04/09 06:05:09;;;;;;;18.10;2.13;;;;;;;1.36;100.00;100872.06;5012490;28;20067;-88
2022/04/09 06:07:35;;;;;;;12.05;2.00;;;;;;;1.48;100.00;100882.06;5010246;28;20030;-88
2022/04/09 06:10:03;;;;;;;22.30;2.33;;;;;;;1.55;100.00;100877.66;5010293;28;20405;-88
2022/04/09 06:12:29;;;;;;;20.33;2.20;;;;;;;1.61;100.00;100892.72;5010771;28;20026;-89
2022/04/09 06:14:54;;;;;;;13.82;2.05;;;;;;;1.72;100.00;100893.16;5012627;28;20034;-88
2022/04/09 06:17:19;;;;;;;11.33;1.90;;;;;;;1.81;100.00;100892.00;5011973;28;20040;-91
2022/04/09 06:19:45;;;;;;;18.07;2.67;;;;;;;1.90;100.00;100896.06;5013923;28;20041;-92
2022/04/09 06:22:10;;;;;;;13.02;2.05;;;;;;;2.01;100.00;100902.63;5029495;28;20053;-90
2022/04/09 06:24:35;;;;;;;14.27;1.83;;;;;;;2.06;100.00;100908.13;5027291;28;20034;-90
2022/04/09 06:27:01;;;;;;;12.67;1.93;;;;;;;2.16;100.00;100914.84;5013443;28;20025;-88
2022/04/09 06:29:26;;;;;;;14.53;2.23;;;;;;;2.30;100.00;100921.78;5012780;28;20025;-92
2022/04/09 06:31:51;;;;;;;18.47;2.20;;;;;;;2.53;100.00;100916.16;5025671;28;20079;-91
2022/04/09 06:34:17;;;;;;;14.23;2.07;;;;;;;2.96;100.00;100928.19;5028688;28;20374;-92
2022/04/09 06:36:43;;;;;;;13.65;2.17;;;;;;;3.23;100.00;100930.78;5020963;28;20049;-90
2022/04/09 06:39:09;;;;;;;16.67;1.92;;;;;;;3.43;99.11;100930.78;5027601;28;20060;-90
2022/04/09 06:41:35;;;;;;;12.23;1.67;;;;;;;3.49;97.95;100934.41;5022298;28;20420;-92
2022/04/09 06:44:00;;;;;;;15.18;1.85;;;;;;;3.48;97.09;100936.22;5011979;28;20026;-93
2022/04/09 06:46:26;;;;;;;12.83;1.60;;;;;;;3.51;96.45;100932.38;5020184;28;20024;-91
2022/04/09 06:48:52;;;;;;;17.38;2.38;;;;;;;3.63;96.24;100940.50;5053734;28;20028;-93
2022/04/09 06:51:17;;;;;;;20.30;1.77;;;;;;;3.81;95.90;100941.66;5039807;28;20068;-93
2022/04/09 06:53:42;;;;;;;12.50;2.00;;;;;;;3.99;95.07;100943.63;5029832;28;20277;-92
2022/04/09 06:56:08;;;;;;;15.37;2.63;;;;;;;4.17;94.35;100948.25;5018268;28;20046;-92
2022/04/09 06:58:34;;;;;;;14.07;1.77;;;;;;;4.23;94.28;100947.38;5013584;28;20040;-91
2022/04/09 07:00:59;;;;;;;10.25;1.48;;;;;;;4.24;93.82;100949.84;5019222;28;20563;-90
2022/04/09 07:03:26;;;;;;;11.60;1.80;;;;;;;4.29;93.79;100956.34;5030578;28;20018;-94
2022/04/09 07:05:51;;;;;;;14.57;1.80;;;;;;;4.34;94.18;100959.97;5022595;28;20030;-92
2022/04/09 07:08:16;;;;;;;19.50;2.10;;;;;;;4.37;93.13;100966.69;5051194;28;20032;-92
2022/04/09 07:10:41;;;;;;;12.93;1.70;;;;;;;4.33;93.51;100987.53;5015718;28;20029;-92
2022/04/09 07:13:07;;;;;;;15.57;1.90;;;;;;;4.28;93.86;100992.66;5013667;28;20108;-92
2022/04/09 07:15:34;;;;;;;18.90;1.90;;;;;;;4.09;96.44;101005.00;5015250;28;20034;-91
2022/04/09 07:17:59;;;;;;;10.43;1.73;;;;;;;3.71;96.61;100997.78;5015259;28;20099;-94
2022/04/09 07:20:25;;;;;;;10.55;1.25;;;;;;;3.44;97.67;101003.09;5018531;28;20117;-95
2022/04/09 07:22:50;;;;;;;6.67;1.13;;;;;;;3.32;100.00;101006.38;5018687;28;20117;-93
2022/04/09 07:25:18;;;;;;;10.80;1.30;;;;;;;3.31;100.00;101007.41;5014908;28;20045;-95
2022/04/09 07:27:45;;;;;;;10.43;1.50;;;;;;;3.35;100.00;101010.44;5022239;28;20595;-93
2022/04/09 07:30:12;;;;;;;15.27;1.92;;;;;;;3.40;100.00;101010.66;5016786;28;20045;-95
2022/04/09 07:32:38;;;;;;;18.50;2.10;;;;;;;3.40;100.00;101008.00;5017454;28;20044;-95
2022/04/09 07:35:04;;;;;;;17.80;1.90;;;;;;;3.30;100.00;101007.59;5022061;28;20034;-96
2022/04/09 07:37:30;;;;;;;13.43;2.03;;;;;;;3.28;100.00;101014.94;5018980;28;20409;-96
2022/04/09 07:39:55;;;;;;;13.43;2.47;;;;;;;3.32;100.00;101014.34;5032345;28;20031;-94
2022/04/09 07:42:22;;;;;;;14.43;2.33;;;;;;;3.40;100.00;101021.25;5038736;28;20038;-96
2022/04/09 07:44:48;;;;;;;17.67;1.73;;;;;;;3.44;100.00;101017.19;5018662;28;20046;-94
2022/04/09 07:47:13;;;;;;;14.27;2.00;;;;;;;3.49;100.00;101011.25;5022250;28;20041;-96
2022/04/09 07:49:39;;;;;;;16.93;2.60;;;;;;;3.56;100.00;101024.50;5012674;28;20565;-92
2022/04/09 07:52:04;;;;;;;30.03;3.53;;;;;;;3.61;100.00;101016.75;5014641;28;20042;-93
2022/04/09 07:54:30;;;;;;;18.80;2.83;;;;;;;3.64;100.00;101021.63;5014821;28;20026;-90
2022/04/09 07:56:56;;;;;;;14.67;2.37;;;;;;;3.73;100.00;101025.69;5014176;28;20021;-90
2022/04/09 07:59:22;;;;;;;19.37;2.23;;;;;;;3.83;100.00;101024.47;5012368;28;20321;-92
2022/04/09 08:01:47;;;;;;;21.77;2.50;;;;;;;3.96;100.00;101023.59;5036822;28;20397;-91
2022/04/09 08:04:13;;;;;;;18.90;2.93;;;;;;;4.03;100.00;101027.03;5032315;28;20026;-92
2022/04/09 08:06:39;;;;;;;21.55;2.92;;;;;;;4.15;100.00;101035.16;5011528;28;20477;-92
2022/04/09 08:09:04;;;;;;;23.03;2.40;;;;;;;4.23;100.00;101035.75;5012570;28;20026;-92
2022/04/09 08:11:30;;;;;;;17.80;2.63;;;;;;;4.44;100.00;101040.94;5012576;28;20022;-91
2022/04/09 08:13:56;;;;;;;22.20;3.53;;;;;;;4.60;100.00;101034.34;5014299;28;20281;-92
2022/04/09 08:16:21;;;;;;;17.15;2.40;;;;;;;4.83;100.00;101024.00;5013495;28;20029;-92
2022/04/09 08:18:46;;;;;;;12.53;2.50;;;;;;;5.08;100.00;101028.50;5011632;28;20034;-94
2022/04/09 08:21:12;;;;;;;19.70;2.50;;;;;;;5.30;100.00;101023.63;5012067;28;20046;-94
2022/04/09 08:23:38;;;;;;;18.05;2.38;;;;;;;5.43;100.00;101028.03;5012801;28;20041;-91
2022/04/09 08:26:03;;;;;;;15.90;2.40;;;;;;;5.52;100.00;101030.41;5027778;28;20025;-90
2022/04/09 08:28:31;;;;;;;19.00;2.03;;;;;;;5.58;94.65;101040.16;5018532;28;20025;-90
2022/04/09 08:30:57;;;;;;;13.35;2.03;;;;;;;5.61;90.45;101032.56;5026820;28;20033;-91
2022/04/09 08:33:22;;;;;;;13.90;1.75;;;;;;;5.69;87.34;101039.44;5033754;28;20079;-90
2022/04/09 08:35:47;;;;;;;7.83;1.20;;;;;;;5.65;83.72;101046.22;5030225;28;20523;-89
2022/04/09 08:38:13;;;;;;;9.80;1.20;;;;;;;5.67;82.15;101046.00;5029977;28;20091;-89
2022/04/09 08:40:40;;;;;;;7.03;1.63;;;;;;;5.61;84.47;101051.19;5029185;28;20105;-90
2022/04/09 08:43:06;;;;;;;8.60;1.20;;;;;;;5.69;80.31;101067.88;5024489;28;20038;-92
2022/04/09 08:45:36;;;;;;;10.63;1.33;;;;;;;5.80;80.58;101053.88;5021882;28;20030;-89
2022/04/09 08:48:05;;;;;;;7.45;1.42;;;;;;;5.93;80.63;101062.75;5031299;28;20075;-91
2022/04/09 08:50:31;;;;;;;10.23;1.40;;;;;;;6.16;78.68;101078.91;5024267;28;20026;-89
2022/04/09 08:52:58;;;;;;;9.55;1.27;;;;;;;6.61;77.45;101084.91;5014082;28;20034;-89
2022/04/09 08:55:23;;;;;;;9.57;1.30;;;;;;;7.04;73.79;101078.59;5015496;28;20433;-89
2022/04/09 08:57:48;;;;;;;10.10;1.00;;;;;;;7.09;71.36;101086.72;5025267;28;20137;-88
2022/04/09 09:00:17;;;;;;;9.43;1.07;;;;;;;6.88;72.03;101095.22;5031478;28;20021;-93
2022/04/09 09:03:11;;;;;;;5.05;1.00;;;;;;;6.57;76.17;101099.72;5037732;28;20021;-91
2022/04/09 09:05:52;;;;;;;4.50;0.77;;;;;;;6.18;72.19;101108.75;5022485;28;20053;-90
2022/04/09 09:08:35;;;;;;;3.05;0.80;;;;;;;5.66;75.53;101114.34;5013790;28;20057;-92
2022/04/09 09:11:00;;;;;;;3.10;0.55;;;;;;;5.46;77.13;101120.63;5018363;28;20033;-91
2022/04/09 09:13:25;;;;;;;1.80;0.57;;;;;;;5.44;78.89;101106.72;5024471;28;20028;-90
2022/04/09 09:15:53;;;;;;;2.53;0.60;;;;;;;5.49;80.09;101111.41;5019730;28;20026;-93
2022/04/09 09:18:26;;;;;;;7.30;0.80;;;;;;;5.57;78.41;101121.78;5035634;28;20025;-93
2022/04/09 09:20:56;;;;;;;5.80;0.80;;;;;;;5.98;79.21;101113.44;5031776;28;20381;-93
2022/04/09 09:23:31;;;;;;;2.95;0.55;;;;;;;6.81;76.15;101128.06;5037343;28;20022;-92
2022/04/09 09:25:58;;;;;;;6.10;0.80;;;;;;;7.18;71.47;101171.66;5033211;28;20041;-92
2022/04/09 09:28:28;;;;;;;3.28;0.40;;;;;;;6.74;71.09;101158.50;5021031;28;20037;-91
2022/04/09 09:30:55;;;;;;;4.10;0.70;;;;;;;6.31;74.00;101155.69;5014777;28;20026;-92
2022/04/09 09:33:21;;;;;;;3.70;0.53;;;;;;;6.00;75.32;101148.66;5013519;28;20276;-92
2022/04/09 09:35:47;;;;;;;2.33;0.40;;;;;;;5.65;75.88;101159.75;5011527;28;20021;-93
2022/04/09 09:38:29;;;;;;;2.33;0.60;;;;;;;5.14;78.99;101155.19;5020511;28;20037;-92
2022/04/09 09:40:58;;;;;;;2.25;0.50;;;;;;;4.87;82.45;101130.59;5031820;28;20034;-93
2022/04/09 09:43:25;;;;;;;2.47;0.68;;;;;;;4.85;81.44;101122.84;5035676;28;20026;-94
2022/04/09 09:45:53;;;;;;;4.47;0.82;;;;;;;4.85;84.73;101130.81;5030816;28;20034;-94
2022/04/09 09:48:29;;;;;;;4.55;0.70;;;;;;;4.81;83.95;101124.31;5025779;28;20030;-94
2022/04/09 09:50:59;;;;;;;2.17;0.60;;;;;;;4.75;84.29;101134.97;5033775;28;20046;-92
2022/04/09 09:53:33;;;;;;;4.37;0.70;;;;;;;4.74;83.53;101135.97;5032628;28;20022;-93
2022/04/09 09:56:03;;;;;;;6.60;0.80;;;;;;;4.96;85.82;101133.81;5036205;28;20292;-92
2022/04/09 09:58:30;;;;;;;4.53;0.73;;;;;;;5.26;83.52;101134.06;5026621;28;20034;-93
2022/04/09 10:00:59;;;;;;;3.47;0.77;;;;;;;5.63;82.38;101127.25;5028724;28;20022;-93
2022/04/09 10:03:26;;;;;;;4.60;1.00;;;;;;;6.02;83.29;101131.44;5015315;28;20175;-92
2022/04/09 10:05:52;;;;;;;4.82;0.70;;;;;;;6.41;79.80;101136.53;5018397;28;20211;-92
2022/04/09 10:08:18;;;;;;;7.05;1.02;;;;;;;6.93;77.92;101132.66;5033434;28;20100;-92
2022/04/09 10:10:48;;;;;;;4.93;0.80;;;;;;;7.48;77.72;101130.84;5033836;28;20484;-93
2022/04/09 10:13:25;;;;;;;9.77;1.00;;;;;;;8.22;69.19;101113.56;5015611;28;20103;-96
2022/04/09 10:15:52;;;;;;;9.83;0.90;;;;;;;8.67;65.51;101125.44;5015080;28;20311;-95
2022/04/09 10:18:25;;;;;;;5.43;0.90;;;;;;;8.86;61.27;101126.88;5013942;28;20025;-95
2022/04/09 10:20:59;;;;;;;5.38;0.90;;;;;;;8.90;57.45;101124.53;5012650;28;20037;-95
2022/04/09 10:23:25;;;;;;;2.65;0.70;;;;;;;8.67;54.59;101131.59;5017946;28;20040;-94
2022/04/09 10:25:54;;;;;;;6.32;1.00;;;;;;;8.45;53.33;101134.88;5028752;28;20388;-90
2022/04/09 10:28:31;;;;;;;2.90;0.60;;;;;;;8.27;54.62;101127.00;5020300;28;20082;-93
2022/04/09 10:30:58;;;;;;;5.10;0.70;;;;;;;8.58;53.86;101143.69;5031403;28;20116;-92
2022/04/09 10:33:28;;;;;;;3.92;0.90;;;;;;;8.68;50.68;101145.75;5034759;28;20029;-91
2022/04/09 10:35:55;;;;;;;4.73;0.50;;;;;;;8.60;50.63;101144.28;5034104;28;20112;-94
2022/04/09 10:38:22;;;;;;;4.00;0.83;;;;;;;8.48;50.20;101144.28;5029293;28;20310;-95
2022/04/09 10:40:52;;;;;;;5.63;0.70;;;;;;;8.52;52.66;101145.47;5022758;28;20049;-94
2022/04/09 10:43:20;;;;;;;3.60;0.50;;;;;;;8.76;50.99;101140.06;5019284;28;20030;-96
2022/04/09 10:46:08;;;;;;;5.15;0.70;;;;;;;8.89;51.23;101129.06;5024941;28;20053;-96
2022/04/09 10:48:40;;;;;;;3.85;0.70;;;;;;;8.72;51.12;101144.25;5021253;28;20049;-96
2022/04/09 10:51:08;;;;;;;8.32;0.63;;;;;;;8.73;53.00;101145.88;5033409;28;20036;-96
2022/04/09 10:53:39;;;;;;;7.28;1.10;;;;;;;8.88;52.91;101148.81;5038512;28;20021;-96
2022/04/09 10:56:21;;;;;;;2.63;0.55;;;;;;;9.29;53.44;101155.97;5024298;28;20094;-95
2022/04/09 10:59:02;;;;;;;2.58;0.60;;;;;;;9.81;50.36;101155.75;5016005;28;20041;-95
2022/04/09 11:01:51;;;;;;;3.00;0.67;;;;;;;9.88;46.67;101149.41;5038737;28;20026;-95
2022/04/09 11:04:34;;;;;;;3.50;0.63;;;;;;;9.85;48.94;101162.25;5022250;28;20341;-93
2022/04/09 11:07:04;;;;;;;2.30;0.80;;;;;;;10.18;47.25;101140.19;5012534;28;20412;-96
2022/04/09 11:10:14;;;;;;;4.60;0.68;;;;;;;10.22;47.83;101138.66;5014614;28;20022;-92
2022/04/09 11:12:39;;;;;;;2.10;0.60;;;;;;;10.37;45.85;101162.13;4990725;28;20060;-90
2022/04/09 11:15:12;;;;;;;4.00;0.40;;;;;;;9.97;45.15;101154.09;5013848;28;20128;-91
2022/04/09 11:17:39;;;;;;;2.45;0.50;;;;;;;9.45;43.90;101144.47;5031183;28;20041;-92